Time;durP1;ratioP1;P1;durP2;ratioP2;P2;SDS_P1;SDS_P2;PMS_P1;PMS_P2;Temp;Humidity;BMP_temperature;BMP_pressure;BME280_temperature;BME280_humidity;BME280_pressure;Samples;Min_cycle;Max_cycle;Signal;HPM_P1;HPM_P2
2022/03/04 00:01:59;;;;;;;23.73;13.60;;;;;;;;;;4973957;28;20061;-71
2022/03/04 00:04:26;;;;;;;32.33;16.77;;;;;;;;;;4982889;28;20164;-70
2022/03/04 00:06:53;;;;;;;28.35;15.90;;;;;;;;;;4972376;28;20042;-69
2022/03/04 00:09:20;;;;;;;31.90;16.25;;;;;;;;;;4987553;28;20203;-69
2022/03/04 00:11:49;;;;;;;31.48;16.23;;;;;;;;;;4975092;28;20041;-69
2022/03/04 00:14:16;;;;;;;33.53;16.52;;;;;;;;;;4973061;28;20050;-70
2022/03/04 00:16:42;;;;;;;26.20;15.75;;;;;;;;;;4970409;28;20551;-69
2022/03/04 00:19:12;;;;;;;29.20;15.93;;;;;;;;;;4978534;28;20050;-69
2022/03/04 00:21:40;;;;;;;27.30;15.35;;;;;;;;;;4994468;28;20088;-71
2022/03/04 00:24:07;;;;;;;25.90;14.27;;;;;;;;;;4975900;28;20073;-70
2022/03/04 00:26:34;;;;;;;25.45;14.88;;;;;;;;;;4981027;28;20042;-71
2022/03/04 00:29:00;;;;;;;25.42;14.30;;;;;;;;;;4963242;28;20089;-71
2022/03/04 00:31:27;;;;;;;28.40;14.07;;;;;;;;;;4978980;28;20094;-71
2022/03/04 00:33:53;;;;;;;30.00;16.40;;;;;;;;;;4972882;28;20054;-72
2022/03/04 00:36:23;;;;;;;28.05;16.35;;;;;;;;;;4979079;28;20061;-72
2022/03/04 00:38:50;;;;;;;30.75;15.77;;;;;;;;;;4988768;28;20527;-70
2022/03/04 00:41:18;;;;;;;29.80;15.00;;;;;;;;;;4966754;28;20050;-70
2022/03/04 00:43:45;;;;;;;26.67;14.93;;;;;;;;;;4977064;28;20550;-70
2022/03/04 00:46:11;;;;;;;25.45;14.48;;;;;;;;;;4970270;28;21161;-71
2022/03/04 00:48:38;;;;;;;27.35;13.68;;;;;;;;;;4981379;28;20065;-70
2022/03/04 00:51:04;;;;;;;25.50;14.70;;;;;;;;;;4978428;28;20053;-71
2022/03/04 00:53:31;;;;;;;24.80;14.23;;;;;;;;;;4983231;28;20128;-71
2022/03/04 00:55:58;;;;;;;27.00;14.77;;;;;;;;;;4974486;28;20471;-70
2022/03/04 00:58:24;;;;;;;27.05;13.93;;;;;;;;;;4965124;28;20047;-71
2022/03/04 01:00:50;;;;;;;24.90;13.93;;;;;;;;;;4987449;28;20061;-71
2022/03/04 01:03:17;;;;;;;24.58;13.82;;;;;;;;;;4978693;28;20499;-70
2022/03/04 01:05:44;;;;;;;25.65;12.90;;;;;;;;;;4981449;28;20054;-71
2022/03/04 01:08:10;;;;;;;28.55;14.00;;;;;;;;;;4981077;28;20062;-71
2022/03/04 01:10:37;;;;;;;24.10;12.75;;;;;;;;;;4983933;28;20053;-72
2022/03/04 01:13:04;;;;;;;27.50;13.82;;;;;;;;;;4983077;28;20061;-71
2022/03/04 01:15:30;;;;;;;24.15;13.00;;;;;;;;;;4972521;28;20050;-71
2022/03/04 01:17:56;;;;;;;25.85;14.23;;;;;;;;;;4981390;28;20477;-71
2022/03/04 01:20:23;;;;;;;26.55;13.80;;;;;;;;;;4972424;28;20047;-72
2022/03/04 01:22:49;;;;;;;23.02;12.95;;;;;;;;;;4977127;28;20054;-69
2022/03/04 01:25:15;;;;;;;24.48;13.85;;;;;;;;;;4975888;28;20486;-70
2022/03/04 01:27:41;;;;;;;24.92;12.77;;;;;;;;;;4982154;28;20049;-70
2022/03/04 01:30:09;;;;;;;25.27;12.77;;;;;;;;;;4986284;28;20053;-71
2022/03/04 01:32:36;;;;;;;24.35;13.73;;;;;;;;;;4981324;28;20057;-71
2022/03/04 01:35:03;;;;;;;24.95;13.30;;;;;;;;;;4980901;28;20057;-73
2022/03/04 01:37:30;;;;;;;26.20;13.93;;;;;;;;;;4977963;28;20057;-73
2022/03/04 01:39:56;;;;;;;25.52;14.10;;;;;;;;;;4974277;28;20069;-73
2022/03/04 01:42:22;;;;;;;26.80;13.70;;;;;;;;;;4989006;28;20046;-73
2022/03/04 01:44:49;;;;;;;26.85;14.50;;;;;;;;;;4974238;28;20072;-73
2022/03/04 01:47:15;;;;;;;31.20;15.02;;;;;;;;;;4982787;28;20050;-74
2022/03/04 01:49:41;;;;;;;29.88;15.07;;;;;;;;;;4972662;28;20058;-74
2022/03/04 01:52:08;;;;;;;24.73;14.23;;;;;;;;;;4972206;28;20511;-74
2022/03/04 01:54:34;;;;;;;30.13;15.45;;;;;;;;;;4978537;28;20043;-74
2022/03/04 01:57:00;;;;;;;28.95;16.08;;;;;;;;;;4979933;28;20590;-74
2022/03/04 01:59:27;;;;;;;29.98;14.50;;;;;;;;;;4982130;28;20397;-74
2022/03/04 02:01:54;;;;;;;27.55;14.95;;;;;;;;;;4972511;28;20073;-74
2022/03/04 02:04:21;;;;;;;26.23;15.05;;;;;;;;;;4963730;28;20054;-74
2022/03/04 02:06:48;;;;;;;28.10;16.48;;;;;;;;;;4969015;28;20085;-72
2022/03/04 02:09:15;;;;;;;28.45;15.75;;;;;;;;;;4981353;28;20577;-74
2022/03/04 02:11:43;;;;;;;29.20;16.27;;;;;;;;;;4981329;28;20042;-71
2022/03/04 02:14:13;;;;;;;35.60;17.25;;;;;;;;;;4973196;28;20427;-71
2022/03/04 02:16:54;;;;;;;32.10;17.77;;;;;;;;;;4991490;28;20410;-74
2022/03/04 02:19:21;;;;;;;30.20;15.52;;;;;;;;;;4967556;28;20065;-73
2022/03/04 02:21:51;;;;;;;24.38;13.65;;;;;;;;;;4979437;28;20061;-71
2022/03/04 02:24:18;;;;;;;26.35;14.30;;;;;;;;;;4971981;28;20073;-74
2022/03/04 02:26:45;;;;;;;25.08;13.90;;;;;;;;;;4995721;28;20057;-72
2022/03/04 02:29:11;;;;;;;26.55;14.65;;;;;;;;;;4981322;28;20093;-74
2022/03/04 02:31:38;;;;;;;26.17;14.70;;;;;;;;;;4967688;28;20229;-74
2022/03/04 02:34:04;;;;;;;25.15;14.38;;;;;;;;;;4988181;28;20060;-74
2022/03/04 02:36:31;;;;;;;27.58;14.63;;;;;;;;;;4977467;28;20531;-74
2022/03/04 02:38:57;;;;;;;25.88;14.27;;;;;;;;;;4986343;28;20058;-72
2022/03/04 02:41:23;;;;;;;30.02;14.63;;;;;;;;;;4976550;28;20506;-72
2022/03/04 02:43:50;;;;;;;27.20;14.23;;;;;;;;;;4984881;28;20062;-74
2022/03/04 02:46:16;;;;;;;29.48;15.32;;;;;;;;;;4983956;28;20141;-73
2022/03/04 02:48:43;;;;;;;28.58;14.82;;;;;;;;;;4977598;28;20073;-73
2022/03/04 02:51:09;;;;;;;29.85;14.57;;;;;;;;;;4983849;28;20042;-74
2022/03/04 02:53:35;;;;;;;27.50;13.45;;;;;;;;;;4977858;28;20053;-73
2022/03/04 02:56:02;;;;;;;24.73;13.15;;;;;;;;;;4981415;28;20046;-73
2022/03/04 02:58:28;;;;;;;26.98;13.98;;;;;;;;;;4972633;28;20073;-72
2022/03/04 03:00:55;;;;;;;31.42;16.23;;;;;;;;;;4994279;28;20470;-71
2022/03/04 03:03:22;;;;;;;25.95;14.25;;;;;;;;;;4992204;28;20085;-72
2022/03/04 03:05:49;;;;;;;25.13;12.90;;;;;;;;;;4975444;28;20078;-70
2022/03/04 03:08:16;;;;;;;23.63;12.65;;;;;;;;;;4984560;28;20046;-71
2022/03/04 03:10:42;;;;;;;24.08;12.27;;;;;;;;;;4972417;28;20578;-71
2022/03/04 03:13:08;;;;;;;24.77;12.85;;;;;;;;;;4981002;28;20053;-71
2022/03/04 03:15:35;;;;;;;24.33;12.15;;;;;;;;;;4990656;28;20460;-70
2022/03/04 03:18:01;;;;;;;24.20;12.45;;;;;;;;;;4977229;28;20061;-71
2022/03/04 03:20:27;;;;;;;27.92;13.15;;;;;;;;;;4984212;28;20093;-72
2022/03/04 03:22:54;;;;;;;24.25;12.00;;;;;;;;;;4977864;28;20050;-71
2022/03/04 03:25:21;;;;;;;28.00;12.60;;;;;;;;;;4979000;28;20069;-71
2022/03/04 03:27:47;;;;;;;22.73;12.32;;;;;;;;;;4981577;28;20542;-71
2022/03/04 03:30:13;;;;;;;25.10;12.55;;;;;;;;;;4983947;28;20411;-70
2022/03/04 03:32:40;;;;;;;23.80;12.32;;;;;;;;;;4983783;28;20056;-71
2022/03/04 03:35:09;;;;;;;22.13;12.65;;;;;;;;;;4975031;28;20514;-72
2022/03/04 03:37:36;;;;;;;25.50;12.73;;;;;;;;;;5000330;28;20050;-69
2022/03/04 03:40:04;;;;;;;23.25;12.15;;;;;;;;;;4966743;28;20054;-71
2022/03/04 03:42:30;;;;;;;24.45;12.13;;;;;;;;;;4982902;28;20046;-70
2022/03/04 03:44:56;;;;;;;24.48;12.35;;;;;;;;;;4976670;28;20165;-70
2022/03/04 03:47:23;;;;;;;26.60;12.55;;;;;;;;;;4974708;28;20054;-70
2022/03/04 03:49:49;;;;;;;24.73;12.55;;;;;;;;;;4988731;28;20046;-69
2022/03/04 03:52:15;;;;;;;21.75;11.65;;;;;;;;;;4971924;28;20053;-71
2022/03/04 03:54:42;;;;;;;24.05;11.75;;;;;;;;;;4983327;28;20562;-72
2022/03/04 03:57:10;;;;;;;21.92;11.52;;;;;;;;;;4975874;28;20519;-71
2022/03/04 03:59:37;;;;;;;28.50;13.02;;;;;;;;;;4984858;28;20060;-72
2022/03/04 04:02:03;;;;;;;22.58;11.63;;;;;;;;;;4981879;28;20411;-70
2022/03/04 04:04:36;;;;;;;28.13;12.23;;;;;;;;;;4965622;28;20047;-72
2022/03/04 04:07:04;;;;;;;22.58;11.48;;;;;;;;;;4997566;28;20050;-71
2022/03/04 04:09:30;;;;;;;23.10;11.77;;;;;;;;;;4976200;28;20665;-71
2022/03/04 04:11:56;;;;;;;21.10;11.98;;;;;;;;;;4983464;28;20062;-74
2022/03/04 04:14:22;;;;;;;26.88;12.10;;;;;;;;;;4970983;28;20307;-72
2022/03/04 04:16:49;;;;;;;24.85;12.80;;;;;;;;;;4980221;28;20053;-72
2022/03/04 04:19:15;;;;;;;22.15;11.65;;;;;;;;;;4978716;28;20046;-72
2022/03/04 04:21:42;;;;;;;25.92;12.73;;;;;;;;;;4975263;28;20104;-72
2022/03/04 04:24:08;;;;;;;23.67;11.70;;;;;;;;;;4982153;28;20058;-72
2022/03/04 04:26:34;;;;;;;25.63;12.23;;;;;;;;;;4979946;28;20057;-72
2022/03/04 04:29:01;;;;;;;21.42;11.00;;;;;;;;;;4987540;28;20061;-72
2022/03/04 04:31:28;;;;;;;26.83;12.27;;;;;;;;;;4973230;28;20217;-72
2022/03/04 04:33:54;;;;;;;23.65;12.13;;;;;;;;;;4984288;28;20046;-72
2022/03/04 04:36:21;;;;;;;22.42;11.95;;;;;;;;;;4981692;28;20055;-72
2022/03/04 04:38:47;;;;;;;24.50;12.63;;;;;;;;;;4986063;28;20064;-73
2022/03/04 04:41:13;;;;;;;26.73;12.18;;;;;;;;;;4986997;28;20050;-72
2022/03/04 04:43:39;;;;;;;22.52;11.63;;;;;;;;;;4973780;28;20055;-72
2022/03/04 04:46:06;;;;;;;23.63;11.57;;;;;;;;;;4974823;28;20055;-72
2022/03/04 04:48:32;;;;;;;25.23;12.35;;;;;;;;;;4981107;28;20054;-72
2022/03/04 04:50:59;;;;;;;22.95;12.45;;;;;;;;;;4980721;28;20049;-73
2022/03/04 04:53:26;;;;;;;25.88;12.90;;;;;;;;;;4987595;28;20080;-72
2022/03/04 04:55:52;;;;;;;26.63;12.38;;;;;;;;;;4974567;28;20516;-72
2022/03/04 04:58:19;;;;;;;23.08;11.88;;;;;;;;;;4978783;28;20054;-72
2022/03/04 05:00:50;;;;;;;23.30;12.20;;;;;;;;;;4960844;28;20240;-72
2022/03/04 05:03:17;;;;;;;23.80;12.10;;;;;;;;;;4980281;28;20050;-72
2022/03/04 05:05:43;;;;;;;24.38;13.00;;;;;;;;;;4983910;28;20081;-72
2022/03/04 05:08:10;;;;;;;25.05;12.25;;;;;;;;;;4972508;28;20392;-72
2022/03/04 05:10:36;;;;;;;24.58;12.68;;;;;;;;;;4997183;28;20544;-71
2022/03/04 05:13:02;;;;;;;27.15;12.50;;;;;;;;;;4968189;28;20050;-70
2022/03/04 05:15:28;;;;;;;24.10;12.65;;;;;;;;;;4976584;28;20427;-71
2022/03/04 05:17:55;;;;;;;27.00;12.13;;;;;;;;;;4974556;28;20487;-71
2022/03/04 05:20:22;;;;;;;21.67;11.73;;;;;;;;;;4981993;28;20054;-71
2022/03/04 05:22:48;;;;;;;21.73;12.40;;;;;;;;;;4981206;28;20057;-71
2022/03/04 05:25:14;;;;;;;25.98;12.35;;;;;;;;;;4973223;28;20072;-71
2022/03/04 05:27:43;;;;;;;;;;;;;;;;;;4987412;28;20054;-70
2022/03/04 05:30:09;;;;;;;27.58;12.70;;;;;;;;;;4969718;28;20323;-70
2022/03/04 05:32:36;;;;;;;22.98;12.85;;;;;;;;;;4982261;28;20085;-70
2022/03/04 05:35:03;;;;;;;25.50;12.45;;;;;;;;;;4973945;28;20385;-71
2022/03/04 05:37:29;;;;;;;25.30;12.57;;;;;;;;;;4981331;28;20054;-70
2022/03/04 05:39:55;;;;;;;27.60;13.32;;;;;;;;;;4981429;28;20049;-70
2022/03/04 05:42:21;;;;;;;24.98;13.85;;;;;;;;;;4967491;28;20053;-70
2022/03/04 05:44:48;;;;;;;24.20;12.90;;;;;;;;;;4980476;28;20057;-71
2022/03/04 05:47:14;;;;;;;26.45;13.90;;;;;;;;;;4973121;28;20054;-71
2022/03/04 05:49:40;;;;;;;24.92;13.27;;;;;;;;;;4989390;28;20054;-71
2022/03/04 05:52:07;;;;;;;28.58;14.05;;;;;;;;;;4975445;28;20042;-71
2022/03/04 05:54:33;;;;;;;22.67;12.50;;;;;;;;;;4973904;28;20373;-70
2022/03/04 05:56:59;;;;;;;27.38;13.13;;;;;;;;;;4975497;28;20065;-71
2022/03/04 05:59:25;;;;;;;23.75;13.00;;;;;;;;;;4983480;28;20054;-70
2022/03/04 06:01:52;;;;;;;23.60;12.85;;;;;;;;;;4974529;28;22213;-70
2022/03/04 06:04:18;;;;;;;26.38;13.43;;;;;;;;;;4963927;28;20539;-70
2022/03/04 06:06:45;;;;;;;23.67;12.77;;;;;;;;;;4977759;28;20047;-70
2022/03/04 06:09:11;;;;;;;29.45;14.63;;;;;;;;;;4969695;28;20502;-70
2022/03/04 06:11:37;;;;;;;25.52;14.13;;;;;;;;;;4980288;28;20073;-71
2022/03/04 06:14:04;;;;;;;27.98;14.32;;;;;;;;;;4987373;28;20049;-70
2022/03/04 06:16:30;;;;;;;25.98;14.40;;;;;;;;;;4991823;28;20064;-70
2022/03/04 06:18:56;;;;;;;28.73;14.73;;;;;;;;;;4992893;28;20427;-70
2022/03/04 06:21:23;;;;;;;26.65;13.45;;;;;;;;;;4979824;28;20665;-70
2022/03/04 06:23:49;;;;;;;26.45;13.60;;;;;;;;;;4982564;28;20057;-70
2022/03/04 06:26:15;;;;;;;25.65;13.65;;;;;;;;;;4983677;28;20050;-70
2022/03/04 06:28:43;;;;;;;25.08;13.98;;;;;;;;;;4979600;28;20142;-70
2022/03/04 06:31:09;;;;;;;26.00;13.95;;;;;;;;;;4984288;28;20511;-70
2022/03/04 06:33:37;;;;;;;28.73;13.95;;;;;;;;;;4976419;28;20053;-70
2022/03/04 06:36:14;;;;;;;29.20;14.55;;;;;;;;;;4985382;28;20431;-70
2022/03/04 06:38:42;;;;;;;31.90;15.15;;;;;;;;;;4982952;28;20385;-70
2022/03/04 06:41:08;;;;;;;27.50;14.90;;;;;;;;;;4991419;28;20054;-70
2022/03/04 06:43:35;;;;;;;32.42;15.82;;;;;;;;;;4976795;28;20058;-70
2022/03/04 06:46:02;;;;;;;27.02;14.23;;;;;;;;;;4977941;28;20054;-70
2022/03/04 06:48:29;;;;;;;28.15;14.25;;;;;;;;;;5005881;28;20490;-70
2022/03/04 06:50:56;;;;;;;24.98;14.05;;;;;;;;;;4973989;28;20054;-70
2022/03/04 06:53:23;;;;;;;26.95;13.45;;;;;;;;;;4981193;28;20051;-70
2022/03/04 06:55:50;;;;;;;32.65;15.80;;;;;;;;;;4975840;28;20043;-70
2022/03/04 06:58:16;;;;;;;28.77;14.20;;;;;;;;;;4972970;28;20045;-70
2022/03/04 07:00:43;;;;;;;30.20;14.63;;;;;;;;;;4985608;28;20079;-70
2022/03/04 07:03:10;;;;;;;25.08;13.25;;;;;;;;;;4979786;28;20046;-70
2022/03/04 07:05:37;;;;;;;26.05;13.88;;;;;;;;;;4982871;28;20050;-70
2022/03/04 07:08:06;;;;;;;26.17;13.82;;;;;;;;;;4973083;28;20042;-70
2022/03/04 07:10:34;;;;;;;29.02;13.98;;;;;;;;;;4990753;28;20053;-70
2022/03/04 07:13:01;;;;;;;23.60;12.10;;;;;;;;;;4985403;28;20042;-70
2022/03/04 07:15:27;;;;;;;30.05;13.15;;;;;;;;;;4991798;28;20042;-70
2022/03/04 07:17:54;;;;;;;29.20;13.00;;;;;;;;;;4990088;28;20476;-70
2022/03/04 07:20:20;;;;;;;24.58;13.57;;;;;;;;;;4969137;28;20046;-70
2022/03/04 07:22:46;;;;;;;25.98;13.23;;;;;;;;;;4979823;28;20050;-70
2022/03/04 07:25:15;;;;;;;25.52;13.65;;;;;;;;;;4990450;28;20046;-70
2022/03/04 07:27:41;;;;;;;27.40;14.48;;;;;;;;;;4984960;28;20471;-70
2022/03/04 07:30:09;;;;;;;25.80;13.18;;;;;;;;;;4983415;28;20480;-70
2022/03/04 07:32:36;;;;;;;23.67;12.23;;;;;;;;;;4980808;28;20042;-70
2022/03/04 07:35:02;;;;;;;26.55;12.65;;;;;;;;;;4976601;28;20280;-70
2022/03/04 07:37:29;;;;;;;26.52;12.55;;;;;;;;;;4968942;28;20058;-70
2022/03/04 07:39:55;;;;;;;24.42;12.55;;;;;;;;;;4985614;28;20050;-71
2022/03/04 07:42:22;;;;;;;26.67;13.07;;;;;;;;;;4976929;28;20059;-70
2022/03/04 07:44:49;;;;;;;25.55;13.43;;;;;;;;;;4979598;28;20054;-70
2022/03/04 07:47:15;;;;;;;23.77;12.48;;;;;;;;;;4968319;28;20566;-70
2022/03/04 07:49:42;;;;;;;24.23;13.23;;;;;;;;;;4970781;28;20069;-70
2022/03/04 07:52:09;;;;;;;23.95;13.50;;;;;;;;;;4976826;28;20053;-70
2022/03/04 07:54:35;;;;;;;29.38;12.82;;;;;;;;;;4985970;28;20053;-70
2022/03/04 07:57:02;;;;;;;25.83;13.32;;;;;;;;;;4982395;28;20046;-70
2022/03/04 07:59:28;;;;;;;27.30;13.23;;;;;;;;;;4986038;28;20061;-70
2022/03/04 08:01:55;;;;;;;27.73;14.07;;;;;;;;;;4972254;28;20055;-71
2022/03/04 08:04:21;;;;;;;23.45;12.52;;;;;;;;;;4978832;28;20154;-71
2022/03/04 08:06:48;;;;;;;26.52;12.48;;;;;;;;;;4969493;28;20058;-69
2022/03/04 08:09:14;;;;;;;32.88;14.70;;;;;;;;;;4980908;28;20261;-70
2022/03/04 08:11:40;;;;;;;25.27;13.20;;;;;;;;;;4980796;28;20049;-70
2022/03/04 08:14:06;;;;;;;25.15;12.90;;;;;;;;;;4980220;28;20042;-70
2022/03/04 08:16:33;;;;;;;24.50;13.73;;;;;;;;;;4977230;28;20061;-71
2022/03/04 08:19:03;;;;;;;27.98;13.25;;;;;;;;;;4979435;28;20086;-70
2022/03/04 08:21:29;;;;;;;25.15;14.00;;;;;;;;;;4994992;28;20056;-70
2022/03/04 08:23:55;;;;;;;25.15;13.10;;;;;;;;;;4981732;28;20424;-70
2022/03/04 08:26:22;;;;;;;30.02;13.82;;;;;;;;;;4991024;28;20054;-70
2022/03/04 08:28:49;;;;;;;28.85;13.70;;;;;;;;;;4976836;28;20049;-69
2022/03/04 08:31:15;;;;;;;29.25;14.25;;;;;;;;;;4982283;28;20038;-71
2022/03/04 08:33:44;;;;;;;29.50;13.05;;;;;;;;;;4984607;28;20558;-70
2022/03/04 08:36:11;;;;;;;29.20;14.95;;;;;;;;;;4972565;28;20407;-70
2022/03/04 08:38:38;;;;;;;29.75;14.88;;;;;;;;;;4995003;28;20045;-70
2022/03/04 08:41:04;;;;;;;30.25;13.18;;;;;;;;;;4980645;28;20508;-70
2022/03/04 08:43:34;;;;;;;27.40;13.93;;;;;;;;;;4994607;28;20045;-69
2022/03/04 08:46:01;;;;;;;26.55;14.15;;;;;;;;;;4984997;28;20413;-70
2022/03/04 08:48:28;;;;;;;28.17;14.90;;;;;;;;;;4990105;28;20149;-70
2022/03/04 08:50:55;;;;;;;29.85;14.57;;;;;;;;;;4987518;28;20050;-70
2022/03/04 08:53:21;;;;;;;27.05;14.30;;;;;;;;;;4973349;28;20097;-69
2022/03/04 08:55:50;;;;;;;31.25;14.70;;;;;;;;;;4984942;28;20462;-70
2022/03/04 08:58:17;;;;;;;29.92;14.02;;;;;;;;;;4972986;28;20042;-69
2022/03/04 09:00:43;;;;;;;29.65;14.55;;;;;;;;;;4981958;28;20038;-70
2022/03/04 09:03:10;;;;;;;37.38;14.30;;;;;;;;;;4971977;28;20042;-71
2022/03/04 09:05:36;;;;;;;38.38;15.60;;;;;;;;;;4991208;28;20481;-70
2022/03/04 09:08:03;;;;;;;29.10;15.02;;;;;;;;;;4982197;28;20065;-69
2022/03/04 09:10:29;;;;;;;30.25;14.43;;;;;;;;;;4980329;28;20054;-69
2022/03/04 09:13:01;;;;;;;30.25;14.77;;;;;;;;;;4982723;28;20074;-70
2022/03/04 09:15:27;;;;;;;43.22;16.15;;;;;;;;;;4982482;28;20428;-70
2022/03/04 09:17:54;;;;;;;30.00;14.40;;;;;;;;;;4985772;28;20045;-70
2022/03/04 09:20:20;;;;;;;29.35;14.90;;;;;;;;;;4978185;28;20043;-70
2022/03/04 09:22:46;;;;;;;28.55;13.02;;;;;;;;;;4987037;28;20069;-70
2022/03/04 09:25:14;;;;;;;29.63;15.40;;;;;;;;;;4968566;28;20042;-70
2022/03/04 09:27:43;;;;;;;33.10;14.32;;;;;;;;;;4994653;28;20065;-70
2022/03/04 09:30:11;;;;;;;26.73;14.70;;;;;;;;;;4994960;28;20050;-70
2022/03/04 09:32:38;;;;;;;25.83;13.93;;;;;;;;;;4988772;28;20061;-70
2022/03/04 09:35:05;;;;;;;28.52;14.75;;;;;;;;;;4988317;28;20046;-70
2022/03/04 09:37:32;;;;;;;28.08;14.50;;;;;;;;;;4994941;28;20420;-70
2022/03/04 09:39:58;;;;;;;34.65;16.20;;;;;;;;;;4981326;28;20066;-70
2022/03/04 09:42:25;;;;;;;24.42;13.27;;;;;;;;;;4975794;28;20053;-69
2022/03/04 09:44:51;;;;;;;34.17;14.73;;;;;;;;;;4987931;28;20073;-70
2022/03/04 09:47:21;;;;;;;30.38;15.18;;;;;;;;;;4988587;28;20065;-70
2022/03/04 09:49:48;;;;;;;31.13;15.88;;;;;;;;;;4970970;28;20047;-70
2022/03/04 09:52:15;;;;;;;29.73;13.98;;;;;;;;;;4981238;28;20046;-70
2022/03/04 09:54:42;;;;;;;29.17;14.60;;;;;;;;;;4979022;28;20050;-70
2022/03/04 09:57:08;;;;;;;27.98;15.13;;;;;;;;;;4986930;28;20046;-69
2022/03/04 09:59:35;;;;;;;27.40;14.75;;;;;;;;;;4981131;28;20050;-70
2022/03/04 10:02:01;;;;;;;31.90;15.20;;;;;;;;;;4985520;28;20057;-70
2022/03/04 10:04:28;;;;;;;26.05;13.95;;;;;;;;;;4973102;28;20050;-70
2022/03/04 10:06:54;;;;;;;28.58;15.02;;;;;;;;;;4976347;28;20046;-70
2022/03/04 10:09:33;;;;;;;29.73;15.02;;;;;;;;;;4982807;28;20057;-70
2022/03/04 10:12:04;;;;;;;31.27;14.90;;;;;;;;;;4982323;28;20066;-70
2022/03/04 10:14:30;;;;;;;27.13;14.73;;;;;;;;;;4986434;28;20055;-70
2022/03/04 10:16:57;;;;;;;31.40;14.77;;;;;;;;;;4980515;28;20129;-70
2022/03/04 10:19:23;;;;;;;25.52;14.52;;;;;;;;;;4984583;28;20055;-69
2022/03/04 10:21:51;;;;;;;29.38;15.00;;;;;;;;;;4998236;28;20052;-70
2022/03/04 10:24:19;;;;;;;24.65;14.02;;;;;;;;;;4978249;28;20042;-70
2022/03/04 10:26:45;;;;;;;28.58;16.63;;;;;;;;;;4983406;28;20050;-70
2022/03/04 10:29:19;;;;;;;29.85;15.60;;;;;;;;;;4982325;28;20046;-70
2022/03/04 10:32:04;;;;;;;28.88;15.40;;;;;;;;;;4987848;28;20051;-70
2022/03/04 10:34:45;;;;;;;26.73;14.02;;;;;;;;;;4962702;28;20059;-70
2022/03/04 10:37:11;;;;;;;23.35;13.23;;;;;;;;;;4981219;28;20415;-69
2022/03/04 10:39:56;;;;;;;29.02;14.95;;;;;;;;;;4980857;28;20057;-70
2022/03/04 10:42:39;;;;;;;27.17;15.00;;;;;;;;;;4990171;28;20050;-70
2022/03/04 10:45:07;;;;;;;27.58;16.23;;;;;;;;;;4977554;28;20046;-70
2022/03/04 10:47:40;;;;;;;27.15;14.68;;;;;;;;;;4990864;28;20284;-70
2022/03/04 10:50:07;;;;;;;25.17;14.63;;;;;;;;;;4985086;28;20150;-70
2022/03/04 10:52:46;;;;;;;25.95;13.70;;;;;;;;;;4981368;28;20088;-70
2022/03/04 10:55:12;;;;;;;;;;;;;;;;;;4989022;28;20058;-70
2022/03/04 10:57:42;;;;;;;25.65;14.40;;;;;;;;;;4968857;28;19948;-72
2022/03/04 11:00:09;;;;;;;25.02;13.95;;;;;;;;;;4991996;28;20484;-70
2022/03/04 11:02:45;;;;;;;30.70;15.95;;;;;;;;;;4980187;28;20050;-70
2022/03/04 11:05:12;;;;;;;28.35;14.40;;;;;;;;;;4976811;28;20133;-70
2022/03/04 11:07:42;;;;;;;29.05;14.77;;;;;;;;;;4983335;28;20407;-70
2022/03/04 11:10:08;;;;;;;25.50;14.48;;;;;;;;;;4985524;28;20759;-70
2022/03/04 11:12:35;;;;;;;27.60;15.27;;;;;;;;;;4989069;28;20042;-70
2022/03/04 11:15:02;;;;;;;27.35;15.45;;;;;;;;;;4991755;28;20042;-70
2022/03/04 11:17:29;;;;;;;26.23;14.52;;;;;;;;;;4983060;28;20051;-70
2022/03/04 11:19:56;;;;;;;29.20;15.60;;;;;;;;;;4976442;28;20429;-71
2022/03/04 11:22:22;;;;;;;26.27;15.05;;;;;;;;;;4990104;28;20044;-70
2022/03/04 11:24:49;;;;;;;27.80;15.60;;;;;;;;;;4987774;28;20054;-70
2022/03/04 11:27:18;;;;;;;29.75;15.90;;;;;;;;;;4983454;28;20064;-70
2022/03/04 11:29:45;;;;;;;24.85;15.30;;;;;;;;;;4985967;28;20057;-70
2022/03/04 11:32:12;;;;;;;27.08;16.30;;;;;;;;;;4990525;28;20042;-70
2022/03/04 11:34:43;;;;;;;24.15;14.43;;;;;;;;;;4990458;28;20096;-70
2022/03/04 11:37:16;;;;;;;26.95;16.02;;;;;;;;;;4970848;28;20515;-70
2022/03/04 11:40:02;;;;;;;29.80;16.95;;;;;;;;;;4988763;28;20074;-70
2022/03/04 11:42:36;;;;;;;28.52;15.98;;;;;;;;;;4983957;28;20413;-71
2022/03/04 11:45:03;;;;;;;25.40;15.88;;;;;;;;;;4978059;28;20058;-70
2022/03/04 11:47:30;;;;;;;24.60;15.23;;;;;;;;;;4982019;28;20408;-70
2022/03/04 11:49:56;;;;;;;25.92;15.70;;;;;;;;;;4983140;28;20054;-71
2022/03/04 11:52:40;;;;;;;29.08;16.58;;;;;;;;;;4988638;28;20769;-71
2022/03/04 11:55:10;;;;;;;24.73;15.77;;;;;;;;;;4984123;28;20054;-71
2022/03/04 11:57:44;;;;;;;26.92;15.38;;;;;;;;;;4988667;28;20510;-71
2022/03/04 12:00:10;;;;;;;25.13;16.70;;;;;;;;;;4990360;28;20434;-71
2022/03/04 12:02:40;;;;;;;23.67;14.98;;;;;;;;;;4995120;28;20108;-70
2022/03/04 12:05:13;;;;;;;23.33;15.57;;;;;;;;;;4981481;28;20573;-70
2022/03/04 12:07:42;;;;;;;24.80;15.07;;;;;;;;;;4981082;28;20050;-70
2022/03/04 12:10:08;;;;;;;;;;;;;;;;;;4991250;28;20542;-70
2022/03/04 12:12:35;;;;;;;26.33;16.40;;;;;;;;;;4976663;28;19937;-71
2022/03/04 12:15:16;;;;;;;27.13;15.82;;;;;;;;;;4984351;28;20061;-71
2022/03/04 12:17:52;;;;;;;27.13;15.75;;;;;;;;;;4982850;28;20046;-71
2022/03/04 12:20:37;;;;;;;27.58;16.77;;;;;;;;;;4988240;28;20100;-71
2022/03/04 12:23:11;;;;;;;24.58;16.08;;;;;;;;;;4980328;28;20076;-71
2022/03/04 12:25:53;;;;;;;23.27;15.90;;;;;;;;;;4993184;28;20480;-70
2022/03/04 12:28:21;;;;;;;26.98;16.52;;;;;;;;;;4976066;28;20421;-71
2022/03/04 12:31:02;;;;;;;24.85;15.63;;;;;;;;;;4984279;28;20058;-70
2022/03/04 12:33:33;;;;;;;26.38;16.08;;;;;;;;;;4989696;28;20112;-71
2022/03/04 12:36:01;;;;;;;23.95;15.43;;;;;;;;;;4987454;28;20054;-70
2022/03/04 12:38:37;;;;;;;31.23;16.02;;;;;;;;;;4997664;28;20097;-71
2022/03/04 12:41:04;;;;;;;22.75;13.95;;;;;;;;;;4974594;28;20034;-70
2022/03/04 12:43:30;;;;;;;29.65;15.23;;;;;;;;;;5006237;28;20089;-70
2022/03/04 12:45:57;;;;;;;23.20;15.15;;;;;;;;;;4981737;28;20176;-70
2022/03/04 12:48:23;;;;;;;25.42;15.90;;;;;;;;;;4996156;28;20069;-70
2022/03/04 12:50:51;;;;;;;28.80;15.13;;;;;;;;;;4985709;28;20128;-70
2022/03/04 12:53:18;;;;;;;22.58;14.48;;;;;;;;;;4982045;28;20295;-70
2022/03/04 12:55:57;;;;;;;22.10;13.05;;;;;;;;;;4983137;28;20042;-71
2022/03/04 12:58:36;;;;;;;26.90;13.13;;;;;;;;;;4980839;28;20053;-70
2022/03/04 13:01:03;;;;;;;21.40;13.40;;;;;;;;;;5002650;28;20053;-70
2022/03/04 13:03:34;;;;;;;21.08;13.52;;;;;;;;;;4979641;28;20112;-70
2022/03/04 13:06:00;;;;;;;21.08;12.73;;;;;;;;;;4979093;28;20054;-71
2022/03/04 13:08:27;;;;;;;19.52;11.13;;;;;;;;;;4974769;28;20061;-71
2022/03/04 13:10:54;;;;;;;20.45;13.95;;;;;;;;;;4978677;28;20058;-71
2022/03/04 13:13:21;;;;;;;20.27;12.52;;;;;;;;;;4985963;28;20081;-71
2022/03/04 13:15:50;;;;;;;21.58;12.07;;;;;;;;;;4979867;28;20120;-71
2022/03/04 13:18:16;;;;;;;19.25;12.38;;;;;;;;;;4999031;28;20108;-71
2022/03/04 13:21:02;;;;;;;21.52;12.70;;;;;;;;;;4985350;28;20057;-71
2022/03/04 13:23:28;;;;;;;24.13;14.88;;;;;;;;;;4984468;28;20038;-71
2022/03/04 13:26:03;;;;;;;21.05;13.15;;;;;;;;;;4980610;28;20484;-71
2022/03/04 13:28:49;;;;;;;31.58;12.30;;;;;;;;;;4988998;28;20061;-71
2022/03/04 13:31:41;;;;;;;20.63;11.82;;;;;;;;;;4987042;28;20064;-71
2022/03/04 13:34:09;;;;;;;19.90;11.25;;;;;;;;;;4982747;28;20046;-71
2022/03/04 13:36:41;;;;;;;32.05;12.10;;;;;;;;;;4978656;28;20064;-70
2022/03/04 13:39:12;;;;;;;23.58;13.98;;;;;;;;;;4983664;28;20061;-71
2022/03/04 13:41:38;;;;;;;20.90;13.95;;;;;;;;;;4982851;28;20050;-72
2022/03/04 13:44:12;;;;;;;21.08;13.85;;;;;;;;;;4985093;28;20062;-70
2022/03/04 13:46:57;;;;;;;18.13;12.73;;;;;;;;;;4999499;28;20050;-71
2022/03/04 13:49:23;;;;;;;17.95;11.55;;;;;;;;;;4975958;28;21925;-70
2022/03/04 13:52:00;;;;;;;21.85;13.43;;;;;;;;;;4981226;28;20061;-70
2022/03/04 13:54:45;;;;;;;25.30;12.02;;;;;;;;;;4980692;28;20050;-70
2022/03/04 13:57:30;;;;;;;22.98;12.40;;;;;;;;;;4986948;28;20042;-70
2022/03/04 14:00:09;;;;;;;19.65;11.35;;;;;;;;;;4979733;28;20038;-71
2022/03/04 14:02:39;;;;;;;15.00;9.93;;;;;;;;;;4978762;28;20050;-70
2022/03/04 14:05:06;;;;;;;23.52;11.63;;;;;;;;;;4975375;28;20137;-71
2022/03/04 14:07:42;;;;;;;22.95;11.13;;;;;;;;;;4982470;28;20038;-70
2022/03/04 14:10:09;;;;;;;18.42;11.55;;;;;;;;;;4987171;28;20042;-70
2022/03/04 14:12:35;;;;;;;16.05;10.07;;;;;;;;;;4964953;28;20057;-71
2022/03/04 14:15:02;;;;;;;22.42;13.48;;;;;;;;;;4986501;28;20058;-70
2022/03/04 14:17:28;;;;;;;18.00;11.43;;;;;;;;;;4976949;28;20484;-70
2022/03/04 14:19:55;;;;;;;16.00;9.73;;;;;;;;;;4990032;28;20510;-71
2022/03/04 14:22:21;;;;;;;15.75;9.77;;;;;;;;;;4991557;28;20042;-70
2022/03/04 14:24:48;;;;;;;21.50;11.68;;;;;;;;;;4987906;28;20053;-72